Terminal Aerodrome Forecast
Issued by NWS Paducah, KY

Home | Current Version | Previous Version | Text Only | Print | Product List | Glossary On
Versions: 1 2 3 4 5 6 7 8 9 10 11 12 13 14 15 16 17 18 19 20 21 22
381
FTUS43 KPAH 281721
TAFPAH
TAF
KPAH 281721Z 2818/2918 26014G22KT P6SM BKN023
     FM282000 27010G15KT P6SM VCSH BKN030
     FM290000 31006KT P6SM SCT035
     FM290600 VRB03KT P6SM SKC=

USA.gov is the U.S. government's official web portal to all federal, state and local government web resources and services.